<?xml version="1.0" encoding="UTF-8"?>
<gpx xmlns="http://www.topografix.com/GPX/1/1" xmlns:xsi="http://www.w3.org/2001/XMLSchema-instance" version="1.1" creator="Trace de Trail" xsi:schemaLocation="http://www.topografix.com/GPX/1/1 http://www.topografix.com/GPX/1/1/gpx.xsd">
  <metadata>
    <name>2027 - Polar Bear Trail - 14km</name>
    <desc>Parcours créé sur Trace de Trail</desc>
    <link href="https://tracedetrail.fr/fr/trace/355306">
      <text>Cartographie du parcours</text>
    </link>
    <time>2026-09-04T11:29:58+00:00</time>
  </metadata>
  <wpt lat="50.81858" lon="5.7266">
    <ele>57</ele>
    <type>depart</type>
  </wpt>
  <wpt lat="50.81863" lon="5.72666">
    <ele>56</ele>
    <type>arrivee</type>
  </wpt>
  <wpt lat="50.80919" lon="5.76203">
    <ele>139</ele>
    <type>ravitoc</type>
  </wpt>
  <trk>
    <name>2027 - Polar Bear Trail - 14km sur TraceDeTrail.fr</name>
    <src>Trace de Trail</src>
    <trkseg>
      <trkpt lat="50.81858" lon="5.7266">
        <ele>57</ele>
        <time>2026-09-04T11:29:58+00:00</time>
      </trkpt>
      <trkpt lat="50.81823" lon="5.72628">
        <ele>56</ele>
        <time>2026-09-04T11:30:01+00:00</time>
      </trkpt>
      <trkpt lat="50.81801" lon="5.72646">
        <ele>56</ele>
        <time>2026-09-04T11:30:04+00:00</time>
      </trkpt>
      <trkpt lat="50.81769" lon="5.72672">
        <ele>55</ele>
        <time>2026-09-04T11:30:07+00:00</time>
      </trkpt>
      <trkpt lat="50.81755" lon="5.72688">
        <ele>55</ele>
        <time>2026-09-04T11:30:10+00:00</time>
      </trkpt>
      <trkpt lat="50.81744" lon="5.72705">
        <ele>55</ele>
        <time>2026-09-04T11:30:13+00:00</time>
      </trkpt>
      <trkpt lat="50.81736" lon="5.72723">
        <ele>55</ele>
        <time>2026-09-04T11:30:16+00:00</time>
      </trkpt>
      <trkpt lat="50.81728" lon="5.72741">
        <ele>55</ele>
        <time>2026-09-04T11:30:19+00:00</time>
      </trkpt>
      <trkpt lat="50.81747" lon="5.7277">
        <ele>55</ele>
        <time>2026-09-04T11:30:22+00:00</time>
      </trkpt>
      <trkpt lat="50.81734" lon="5.72805">
        <ele>55</ele>
        <time>2026-09-04T11:30:25+00:00</time>
      </trkpt>
      <trkpt lat="50.81712" lon="5.72815">
        <ele>55</ele>
        <time>2026-09-04T11:30:28+00:00</time>
      </trkpt>
      <trkpt lat="50.81696" lon="5.7284">
        <ele>57</ele>
        <time>2026-09-04T11:30:31+00:00</time>
      </trkpt>
      <trkpt lat="50.81687" lon="5.72849">
        <ele>57</ele>
        <time>2026-09-04T11:30:34+00:00</time>
      </trkpt>
      <trkpt lat="50.8169" lon="5.72855">
        <ele>57</ele>
        <time>2026-09-04T11:30:37+00:00</time>
      </trkpt>
      <trkpt lat="50.81695" lon="5.72858">
        <ele>57</ele>
        <time>2026-09-04T11:30:40+00:00</time>
      </trkpt>
      <trkpt lat="50.81721" lon="5.7286">
        <ele>57</ele>
        <time>2026-09-04T11:30:43+00:00</time>
      </trkpt>
      <trkpt lat="50.81765" lon="5.72864">
        <ele>57</ele>
        <time>2026-09-04T11:30:46+00:00</time>
      </trkpt>
      <trkpt lat="50.81776" lon="5.72909">
        <ele>56</ele>
        <time>2026-09-04T11:30:49+00:00</time>
      </trkpt>
      <trkpt lat="50.81783" lon="5.72953">
        <ele>56</ele>
        <time>2026-09-04T11:30:52+00:00</time>
      </trkpt>
      <trkpt lat="50.81789" lon="5.72997">
        <ele>57</ele>
        <time>2026-09-04T11:30:55+00:00</time>
      </trkpt>
      <trkpt lat="50.81796" lon="5.73042">
        <ele>57</ele>
        <time>2026-09-04T11:30:58+00:00</time>
      </trkpt>
      <trkpt lat="50.81797" lon="5.73056">
        <ele>58</ele>
        <time>2026-09-04T11:31:01+00:00</time>
      </trkpt>
      <trkpt lat="50.81793" lon="5.73087">
        <ele>58</ele>
        <time>2026-09-04T11:31:04+00:00</time>
      </trkpt>
      <trkpt lat="50.81787" lon="5.73125">
        <ele>58</ele>
        <time>2026-09-04T11:31:07+00:00</time>
      </trkpt>
      <trkpt lat="50.81783" lon="5.73144">
        <ele>58</ele>
        <time>2026-09-04T11:31:10+00:00</time>
      </trkpt>
      <trkpt lat="50.81773" lon="5.73174">
        <ele>58</ele>
        <time>2026-09-04T11:31:13+00:00</time>
      </trkpt>
      <trkpt lat="50.81757" lon="5.73223">
        <ele>58</ele>
        <time>2026-09-04T11:31:16+00:00</time>
      </trkpt>
      <trkpt lat="50.81744" lon="5.73255">
        <ele>58</ele>
        <time>2026-09-04T11:31:19+00:00</time>
      </trkpt>
      <trkpt lat="50.81728" lon="5.73297">
        <ele>58</ele>
        <time>2026-09-04T11:31:22+00:00</time>
      </trkpt>
      <trkpt lat="50.81714" lon="5.73337">
        <ele>58</ele>
        <time>2026-09-04T11:31:25+00:00</time>
      </trkpt>
      <trkpt lat="50.817" lon="5.73377">
        <ele>58</ele>
        <time>2026-09-04T11:31:28+00:00</time>
      </trkpt>
      <trkpt lat="50.81685" lon="5.7342">
        <ele>59</ele>
        <time>2026-09-04T11:31:31+00:00</time>
      </trkpt>
      <trkpt lat="50.81674" lon="5.73466">
        <ele>59</ele>
        <time>2026-09-04T11:31:34+00:00</time>
      </trkpt>
      <trkpt lat="50.81663" lon="5.73512">
        <ele>59</ele>
        <time>2026-09-04T11:31:37+00:00</time>
      </trkpt>
      <trkpt lat="50.81644" lon="5.73593">
        <ele>61</ele>
        <time>2026-09-04T11:31:40+00:00</time>
      </trkpt>
      <trkpt lat="50.81641" lon="5.73603">
        <ele>61</ele>
        <time>2026-09-04T11:31:43+00:00</time>
      </trkpt>
      <trkpt lat="50.81626" lon="5.73625">
        <ele>61</ele>
        <time>2026-09-04T11:31:46+00:00</time>
      </trkpt>
      <trkpt lat="50.81608" lon="5.73653">
        <ele>61</ele>
        <time>2026-09-04T11:31:49+00:00</time>
      </trkpt>
      <trkpt lat="50.81584" lon="5.73703">
        <ele>61</ele>
        <time>2026-09-04T11:31:52+00:00</time>
      </trkpt>
      <trkpt lat="50.81597" lon="5.7373">
        <ele>61</ele>
        <time>2026-09-04T11:31:55+00:00</time>
      </trkpt>
      <trkpt lat="50.81611" lon="5.73759">
        <ele>62</ele>
        <time>2026-09-04T11:31:58+00:00</time>
      </trkpt>
      <trkpt lat="50.81617" lon="5.73776">
        <ele>62</ele>
        <time>2026-09-04T11:32:01+00:00</time>
      </trkpt>
      <trkpt lat="50.81626" lon="5.738">
        <ele>64</ele>
        <time>2026-09-04T11:32:04+00:00</time>
      </trkpt>
      <trkpt lat="50.81638" lon="5.7383">
        <ele>66</ele>
        <time>2026-09-04T11:32:07+00:00</time>
      </trkpt>
      <trkpt lat="50.81653" lon="5.73862">
        <ele>68</ele>
        <time>2026-09-04T11:32:10+00:00</time>
      </trkpt>
      <trkpt lat="50.81673" lon="5.73907">
        <ele>71</ele>
        <time>2026-09-04T11:32:13+00:00</time>
      </trkpt>
      <trkpt lat="50.81698" lon="5.73945">
        <ele>73</ele>
        <time>2026-09-04T11:32:16+00:00</time>
      </trkpt>
      <trkpt lat="50.81716" lon="5.73958">
        <ele>74</ele>
        <time>2026-09-04T11:32:19+00:00</time>
      </trkpt>
      <trkpt lat="50.81742" lon="5.73986">
        <ele>75</ele>
        <time>2026-09-04T11:32:22+00:00</time>
      </trkpt>
      <trkpt lat="50.81757" lon="5.74004">
        <ele>77</ele>
        <time>2026-09-04T11:32:25+00:00</time>
      </trkpt>
      <trkpt lat="50.81768" lon="5.74021">
        <ele>78</ele>
        <time>2026-09-04T11:32:28+00:00</time>
      </trkpt>
      <trkpt lat="50.8178" lon="5.74048">
        <ele>78</ele>
        <time>2026-09-04T11:32:31+00:00</time>
      </trkpt>
      <trkpt lat="50.81794" lon="5.74083">
        <ele>79</ele>
        <time>2026-09-04T11:32:34+00:00</time>
      </trkpt>
      <trkpt lat="50.81816" lon="5.7414">
        <ele>81</ele>
        <time>2026-09-04T11:32:37+00:00</time>
      </trkpt>
      <trkpt lat="50.8184" lon="5.74183">
        <ele>82</ele>
        <time>2026-09-04T11:32:40+00:00</time>
      </trkpt>
      <trkpt lat="50.81849" lon="5.74207">
        <ele>84</ele>
        <time>2026-09-04T11:32:43+00:00</time>
      </trkpt>
      <trkpt lat="50.81862" lon="5.74251">
        <ele>86</ele>
        <time>2026-09-04T11:32:46+00:00</time>
      </trkpt>
      <trkpt lat="50.81866" lon="5.74276">
        <ele>88</ele>
        <time>2026-09-04T11:32:49+00:00</time>
      </trkpt>
      <trkpt lat="50.81867" lon="5.74303">
        <ele>91</ele>
        <time>2026-09-04T11:32:52+00:00</time>
      </trkpt>
      <trkpt lat="50.81863" lon="5.74344">
        <ele>95</ele>
        <time>2026-09-04T11:32:55+00:00</time>
      </trkpt>
      <trkpt lat="50.81858" lon="5.74408">
        <ele>115</ele>
        <time>2026-09-04T11:32:58+00:00</time>
      </trkpt>
      <trkpt lat="50.81856" lon="5.74415">
        <ele>118</ele>
        <time>2026-09-04T11:33:01+00:00</time>
      </trkpt>
      <trkpt lat="50.81851" lon="5.74421">
        <ele>120</ele>
        <time>2026-09-04T11:33:04+00:00</time>
      </trkpt>
      <trkpt lat="50.81828" lon="5.74429">
        <ele>120</ele>
        <time>2026-09-04T11:33:07+00:00</time>
      </trkpt>
      <trkpt lat="50.8183" lon="5.74434">
        <ele>122</ele>
        <time>2026-09-04T11:33:10+00:00</time>
      </trkpt>
      <trkpt lat="50.81859" lon="5.74453">
        <ele>126</ele>
        <time>2026-09-04T11:33:13+00:00</time>
      </trkpt>
      <trkpt lat="50.81882" lon="5.74484">
        <ele>128</ele>
        <time>2026-09-04T11:33:16+00:00</time>
      </trkpt>
      <trkpt lat="50.81903" lon="5.74503">
        <ele>132</ele>
        <time>2026-09-04T11:33:19+00:00</time>
      </trkpt>
      <trkpt lat="50.81912" lon="5.74515">
        <ele>132</ele>
        <time>2026-09-04T11:33:22+00:00</time>
      </trkpt>
      <trkpt lat="50.8192" lon="5.7453">
        <ele>133</ele>
        <time>2026-09-04T11:33:25+00:00</time>
      </trkpt>
      <trkpt lat="50.81923" lon="5.7454">
        <ele>133</ele>
        <time>2026-09-04T11:33:28+00:00</time>
      </trkpt>
      <trkpt lat="50.81935" lon="5.74589">
        <ele>133</ele>
        <time>2026-09-04T11:33:31+00:00</time>
      </trkpt>
      <trkpt lat="50.81945" lon="5.74624">
        <ele>131</ele>
        <time>2026-09-04T11:33:34+00:00</time>
      </trkpt>
      <trkpt lat="50.81956" lon="5.74656">
        <ele>128</ele>
        <time>2026-09-04T11:33:37+00:00</time>
      </trkpt>
      <trkpt lat="50.81964" lon="5.74685">
        <ele>127</ele>
        <time>2026-09-04T11:33:40+00:00</time>
      </trkpt>
      <trkpt lat="50.81942" lon="5.74683">
        <ele>126</ele>
        <time>2026-09-04T11:33:43+00:00</time>
      </trkpt>
      <trkpt lat="50.8192" lon="5.74682">
        <ele>120</ele>
        <time>2026-09-04T11:33:46+00:00</time>
      </trkpt>
      <trkpt lat="50.81882" lon="5.74686">
        <ele>117</ele>
        <time>2026-09-04T11:33:49+00:00</time>
      </trkpt>
      <trkpt lat="50.81873" lon="5.74721">
        <ele>117</ele>
        <time>2026-09-04T11:33:52+00:00</time>
      </trkpt>
      <trkpt lat="50.81864" lon="5.74766">
        <ele>117</ele>
        <time>2026-09-04T11:33:55+00:00</time>
      </trkpt>
      <trkpt lat="50.81855" lon="5.74812">
        <ele>118</ele>
        <time>2026-09-04T11:33:58+00:00</time>
      </trkpt>
      <trkpt lat="50.81843" lon="5.74875">
        <ele>121</ele>
        <time>2026-09-04T11:34:01+00:00</time>
      </trkpt>
      <trkpt lat="50.81867" lon="5.74906">
        <ele>120</ele>
        <time>2026-09-04T11:34:04+00:00</time>
      </trkpt>
      <trkpt lat="50.81891" lon="5.74937">
        <ele>121</ele>
        <time>2026-09-04T11:34:07+00:00</time>
      </trkpt>
      <trkpt lat="50.81932" lon="5.7499">
        <ele>122</ele>
        <time>2026-09-04T11:34:10+00:00</time>
      </trkpt>
      <trkpt lat="50.81937" lon="5.75001">
        <ele>123</ele>
        <time>2026-09-04T11:34:13+00:00</time>
      </trkpt>
      <trkpt lat="50.81955" lon="5.75025">
        <ele>123</ele>
        <time>2026-09-04T11:34:16+00:00</time>
      </trkpt>
      <trkpt lat="50.81987" lon="5.75066">
        <ele>125</ele>
        <time>2026-09-04T11:34:19+00:00</time>
      </trkpt>
      <trkpt lat="50.82006" lon="5.7511">
        <ele>126</ele>
        <time>2026-09-04T11:34:22+00:00</time>
      </trkpt>
      <trkpt lat="50.82025" lon="5.75154">
        <ele>126</ele>
        <time>2026-09-04T11:34:25+00:00</time>
      </trkpt>
      <trkpt lat="50.82045" lon="5.75198">
        <ele>126</ele>
        <time>2026-09-04T11:34:28+00:00</time>
      </trkpt>
      <trkpt lat="50.8208" lon="5.75278">
        <ele>124</ele>
        <time>2026-09-04T11:34:31+00:00</time>
      </trkpt>
      <trkpt lat="50.82101" lon="5.75316">
        <ele>123</ele>
        <time>2026-09-04T11:34:34+00:00</time>
      </trkpt>
      <trkpt lat="50.82122" lon="5.75355">
        <ele>123</ele>
        <time>2026-09-04T11:34:37+00:00</time>
      </trkpt>
      <trkpt lat="50.82143" lon="5.75393">
        <ele>123</ele>
        <time>2026-09-04T11:34:40+00:00</time>
      </trkpt>
      <trkpt lat="50.82165" lon="5.75434">
        <ele>121</ele>
        <time>2026-09-04T11:34:43+00:00</time>
      </trkpt>
      <trkpt lat="50.82187" lon="5.75476">
        <ele>121</ele>
        <time>2026-09-04T11:34:46+00:00</time>
      </trkpt>
      <trkpt lat="50.82209" lon="5.75519">
        <ele>121</ele>
        <time>2026-09-04T11:34:49+00:00</time>
      </trkpt>
      <trkpt lat="50.82231" lon="5.75562">
        <ele>122</ele>
        <time>2026-09-04T11:34:52+00:00</time>
      </trkpt>
      <trkpt lat="50.82253" lon="5.75604">
        <ele>125</ele>
        <time>2026-09-04T11:34:55+00:00</time>
      </trkpt>
      <trkpt lat="50.82286" lon="5.75667">
        <ele>126</ele>
        <time>2026-09-04T11:34:58+00:00</time>
      </trkpt>
      <trkpt lat="50.82287" lon="5.75675">
        <ele>127</ele>
        <time>2026-09-04T11:35:01+00:00</time>
      </trkpt>
      <trkpt lat="50.82287" lon="5.75684">
        <ele>128</ele>
        <time>2026-09-04T11:35:04+00:00</time>
      </trkpt>
      <trkpt lat="50.8227" lon="5.75724">
        <ele>126</ele>
        <time>2026-09-04T11:35:07+00:00</time>
      </trkpt>
      <trkpt lat="50.82247" lon="5.75725">
        <ele>122</ele>
        <time>2026-09-04T11:35:10+00:00</time>
      </trkpt>
      <trkpt lat="50.8222" lon="5.75726">
        <ele>118</ele>
        <time>2026-09-04T11:35:13+00:00</time>
      </trkpt>
      <trkpt lat="50.82209" lon="5.75727">
        <ele>112</ele>
        <time>2026-09-04T11:35:16+00:00</time>
      </trkpt>
      <trkpt lat="50.82202" lon="5.7573">
        <ele>111</ele>
        <time>2026-09-04T11:35:19+00:00</time>
      </trkpt>
      <trkpt lat="50.82199" lon="5.75737">
        <ele>109</ele>
        <time>2026-09-04T11:35:22+00:00</time>
      </trkpt>
      <trkpt lat="50.82193" lon="5.75741">
        <ele>108</ele>
        <time>2026-09-04T11:35:25+00:00</time>
      </trkpt>
      <trkpt lat="50.82189" lon="5.75746">
        <ele>105</ele>
        <time>2026-09-04T11:35:28+00:00</time>
      </trkpt>
      <trkpt lat="50.82183" lon="5.75747">
        <ele>105</ele>
        <time>2026-09-04T11:35:31+00:00</time>
      </trkpt>
      <trkpt lat="50.82173" lon="5.75734">
        <ele>103</ele>
        <time>2026-09-04T11:35:34+00:00</time>
      </trkpt>
      <trkpt lat="50.82158" lon="5.75772">
        <ele>86</ele>
        <time>2026-09-04T11:35:37+00:00</time>
      </trkpt>
      <trkpt lat="50.82139" lon="5.75801">
        <ele>85</ele>
        <time>2026-09-04T11:35:40+00:00</time>
      </trkpt>
      <trkpt lat="50.82108" lon="5.75847">
        <ele>85</ele>
        <time>2026-09-04T11:35:43+00:00</time>
      </trkpt>
      <trkpt lat="50.82094" lon="5.75863">
        <ele>84</ele>
        <time>2026-09-04T11:35:46+00:00</time>
      </trkpt>
      <trkpt lat="50.82117" lon="5.75889">
        <ele>84</ele>
        <time>2026-09-04T11:35:49+00:00</time>
      </trkpt>
      <trkpt lat="50.82151" lon="5.75909">
        <ele>84</ele>
        <time>2026-09-04T11:35:52+00:00</time>
      </trkpt>
      <trkpt lat="50.82161" lon="5.75919">
        <ele>84</ele>
        <time>2026-09-04T11:35:55+00:00</time>
      </trkpt>
      <trkpt lat="50.82171" lon="5.7594">
        <ele>84</ele>
        <time>2026-09-04T11:35:58+00:00</time>
      </trkpt>
      <trkpt lat="50.82181" lon="5.75976">
        <ele>85</ele>
        <time>2026-09-04T11:36:01+00:00</time>
      </trkpt>
      <trkpt lat="50.82189" lon="5.75997">
        <ele>86</ele>
        <time>2026-09-04T11:36:04+00:00</time>
      </trkpt>
      <trkpt lat="50.82196" lon="5.76005">
        <ele>85</ele>
        <time>2026-09-04T11:36:07+00:00</time>
      </trkpt>
      <trkpt lat="50.82225" lon="5.76028">
        <ele>85</ele>
        <time>2026-09-04T11:36:10+00:00</time>
      </trkpt>
      <trkpt lat="50.82244" lon="5.76057">
        <ele>85</ele>
        <time>2026-09-04T11:36:13+00:00</time>
      </trkpt>
      <trkpt lat="50.82253" lon="5.76079">
        <ele>85</ele>
        <time>2026-09-04T11:36:16+00:00</time>
      </trkpt>
      <trkpt lat="50.82258" lon="5.76098">
        <ele>85</ele>
        <time>2026-09-04T11:36:19+00:00</time>
      </trkpt>
      <trkpt lat="50.82263" lon="5.76118">
        <ele>85</ele>
        <time>2026-09-04T11:36:22+00:00</time>
      </trkpt>
      <trkpt lat="50.82267" lon="5.76152">
        <ele>86</ele>
        <time>2026-09-04T11:36:25+00:00</time>
      </trkpt>
      <trkpt lat="50.82267" lon="5.76207">
        <ele>87</ele>
        <time>2026-09-04T11:36:28+00:00</time>
      </trkpt>
      <trkpt lat="50.82264" lon="5.76248">
        <ele>88</ele>
        <time>2026-09-04T11:36:31+00:00</time>
      </trkpt>
      <trkpt lat="50.82299" lon="5.76264">
        <ele>88</ele>
        <time>2026-09-04T11:36:34+00:00</time>
      </trkpt>
      <trkpt lat="50.82321" lon="5.76269">
        <ele>94</ele>
        <time>2026-09-04T11:36:37+00:00</time>
      </trkpt>
      <trkpt lat="50.82335" lon="5.7627">
        <ele>96</ele>
        <time>2026-09-04T11:36:40+00:00</time>
      </trkpt>
      <trkpt lat="50.82349" lon="5.76274">
        <ele>98</ele>
        <time>2026-09-04T11:36:43+00:00</time>
      </trkpt>
      <trkpt lat="50.82351" lon="5.76297">
        <ele>101</ele>
        <time>2026-09-04T11:36:46+00:00</time>
      </trkpt>
      <trkpt lat="50.82347" lon="5.76323">
        <ele>98</ele>
        <time>2026-09-04T11:36:49+00:00</time>
      </trkpt>
      <trkpt lat="50.82348" lon="5.76333">
        <ele>99</ele>
        <time>2026-09-04T11:36:52+00:00</time>
      </trkpt>
      <trkpt lat="50.82343" lon="5.76341">
        <ele>100</ele>
        <time>2026-09-04T11:36:55+00:00</time>
      </trkpt>
      <trkpt lat="50.82336" lon="5.76364">
        <ele>100</ele>
        <time>2026-09-04T11:36:58+00:00</time>
      </trkpt>
      <trkpt lat="50.82344" lon="5.76372">
        <ele>101</ele>
        <time>2026-09-04T11:37:01+00:00</time>
      </trkpt>
      <trkpt lat="50.8235" lon="5.76389">
        <ele>102</ele>
        <time>2026-09-04T11:37:04+00:00</time>
      </trkpt>
      <trkpt lat="50.82363" lon="5.76369">
        <ele>106</ele>
        <time>2026-09-04T11:37:07+00:00</time>
      </trkpt>
      <trkpt lat="50.82368" lon="5.76367">
        <ele>106</ele>
        <time>2026-09-04T11:37:10+00:00</time>
      </trkpt>
      <trkpt lat="50.82377" lon="5.76371">
        <ele>108</ele>
        <time>2026-09-04T11:37:13+00:00</time>
      </trkpt>
      <trkpt lat="50.82388" lon="5.76372">
        <ele>110</ele>
        <time>2026-09-04T11:37:16+00:00</time>
      </trkpt>
      <trkpt lat="50.82391" lon="5.76381">
        <ele>112</ele>
        <time>2026-09-04T11:37:19+00:00</time>
      </trkpt>
      <trkpt lat="50.8239" lon="5.76396">
        <ele>110</ele>
        <time>2026-09-04T11:37:22+00:00</time>
      </trkpt>
      <trkpt lat="50.82382" lon="5.76426">
        <ele>109</ele>
        <time>2026-09-04T11:37:25+00:00</time>
      </trkpt>
      <trkpt lat="50.8238" lon="5.76432">
        <ele>112</ele>
        <time>2026-09-04T11:37:28+00:00</time>
      </trkpt>
      <trkpt lat="50.82383" lon="5.7644">
        <ele>112</ele>
        <time>2026-09-04T11:37:31+00:00</time>
      </trkpt>
      <trkpt lat="50.82385" lon="5.76443">
        <ele>112</ele>
        <time>2026-09-04T11:37:34+00:00</time>
      </trkpt>
      <trkpt lat="50.82362" lon="5.76467">
        <ele>109</ele>
        <time>2026-09-04T11:37:37+00:00</time>
      </trkpt>
      <trkpt lat="50.82354" lon="5.76502">
        <ele>109</ele>
        <time>2026-09-04T11:37:40+00:00</time>
      </trkpt>
      <trkpt lat="50.82344" lon="5.76545">
        <ele>110</ele>
        <time>2026-09-04T11:37:43+00:00</time>
      </trkpt>
      <trkpt lat="50.82338" lon="5.76602">
        <ele>112</ele>
        <time>2026-09-04T11:37:46+00:00</time>
      </trkpt>
      <trkpt lat="50.82335" lon="5.76654">
        <ele>111</ele>
        <time>2026-09-04T11:37:49+00:00</time>
      </trkpt>
      <trkpt lat="50.82324" lon="5.76666">
        <ele>114</ele>
        <time>2026-09-04T11:37:52+00:00</time>
      </trkpt>
      <trkpt lat="50.82303" lon="5.76665">
        <ele>110</ele>
        <time>2026-09-04T11:37:55+00:00</time>
      </trkpt>
      <trkpt lat="50.82272" lon="5.76664">
        <ele>105</ele>
        <time>2026-09-04T11:37:58+00:00</time>
      </trkpt>
      <trkpt lat="50.8225" lon="5.76667">
        <ele>99</ele>
        <time>2026-09-04T11:38:01+00:00</time>
      </trkpt>
      <trkpt lat="50.82226" lon="5.76674">
        <ele>98</ele>
        <time>2026-09-04T11:38:04+00:00</time>
      </trkpt>
      <trkpt lat="50.82223" lon="5.76701">
        <ele>98</ele>
        <time>2026-09-04T11:38:07+00:00</time>
      </trkpt>
      <trkpt lat="50.82218" lon="5.76728">
        <ele>99</ele>
        <time>2026-09-04T11:38:10+00:00</time>
      </trkpt>
      <trkpt lat="50.82205" lon="5.76781">
        <ele>99</ele>
        <time>2026-09-04T11:38:13+00:00</time>
      </trkpt>
      <trkpt lat="50.82192" lon="5.76771">
        <ele>97</ele>
        <time>2026-09-04T11:38:16+00:00</time>
      </trkpt>
      <trkpt lat="50.82186" lon="5.76793">
        <ele>95</ele>
        <time>2026-09-04T11:38:19+00:00</time>
      </trkpt>
      <trkpt lat="50.8218" lon="5.76818">
        <ele>95</ele>
        <time>2026-09-04T11:38:22+00:00</time>
      </trkpt>
      <trkpt lat="50.82172" lon="5.76857">
        <ele>95</ele>
        <time>2026-09-04T11:38:25+00:00</time>
      </trkpt>
      <trkpt lat="50.82171" lon="5.76874">
        <ele>95</ele>
        <time>2026-09-04T11:38:28+00:00</time>
      </trkpt>
      <trkpt lat="50.82174" lon="5.76905">
        <ele>95</ele>
        <time>2026-09-04T11:38:31+00:00</time>
      </trkpt>
      <trkpt lat="50.82172" lon="5.76915">
        <ele>96</ele>
        <time>2026-09-04T11:38:34+00:00</time>
      </trkpt>
      <trkpt lat="50.82168" lon="5.76919">
        <ele>95</ele>
        <time>2026-09-04T11:38:37+00:00</time>
      </trkpt>
      <trkpt lat="50.82164" lon="5.7692">
        <ele>94</ele>
        <time>2026-09-04T11:38:40+00:00</time>
      </trkpt>
      <trkpt lat="50.82144" lon="5.76906">
        <ele>95</ele>
        <time>2026-09-04T11:38:43+00:00</time>
      </trkpt>
      <trkpt lat="50.82134" lon="5.76906">
        <ele>94</ele>
        <time>2026-09-04T11:38:46+00:00</time>
      </trkpt>
      <trkpt lat="50.82129" lon="5.76909">
        <ele>93</ele>
        <time>2026-09-04T11:38:49+00:00</time>
      </trkpt>
      <trkpt lat="50.8211" lon="5.76928">
        <ele>95</ele>
        <time>2026-09-04T11:38:52+00:00</time>
      </trkpt>
      <trkpt lat="50.82102" lon="5.76942">
        <ele>98</ele>
        <time>2026-09-04T11:38:55+00:00</time>
      </trkpt>
      <trkpt lat="50.821" lon="5.76951">
        <ele>98</ele>
        <time>2026-09-04T11:38:58+00:00</time>
      </trkpt>
      <trkpt lat="50.82104" lon="5.77008">
        <ele>99</ele>
        <time>2026-09-04T11:39:01+00:00</time>
      </trkpt>
      <trkpt lat="50.82106" lon="5.77047">
        <ele>97</ele>
        <time>2026-09-04T11:39:04+00:00</time>
      </trkpt>
      <trkpt lat="50.82108" lon="5.77104">
        <ele>97</ele>
        <time>2026-09-04T11:39:07+00:00</time>
      </trkpt>
      <trkpt lat="50.82105" lon="5.77137">
        <ele>97</ele>
        <time>2026-09-04T11:39:10+00:00</time>
      </trkpt>
      <trkpt lat="50.82092" lon="5.77186">
        <ele>97</ele>
        <time>2026-09-04T11:39:13+00:00</time>
      </trkpt>
      <trkpt lat="50.82083" lon="5.77209">
        <ele>97</ele>
        <time>2026-09-04T11:39:16+00:00</time>
      </trkpt>
      <trkpt lat="50.8207" lon="5.77235">
        <ele>97</ele>
        <time>2026-09-04T11:39:19+00:00</time>
      </trkpt>
      <trkpt lat="50.82062" lon="5.77269">
        <ele>98</ele>
        <time>2026-09-04T11:39:22+00:00</time>
      </trkpt>
      <trkpt lat="50.82045" lon="5.77282">
        <ele>98</ele>
        <time>2026-09-04T11:39:25+00:00</time>
      </trkpt>
      <trkpt lat="50.8203" lon="5.77289">
        <ele>98</ele>
        <time>2026-09-04T11:39:28+00:00</time>
      </trkpt>
      <trkpt lat="50.82011" lon="5.77292">
        <ele>99</ele>
        <time>2026-09-04T11:39:31+00:00</time>
      </trkpt>
      <trkpt lat="50.81983" lon="5.77296">
        <ele>100</ele>
        <time>2026-09-04T11:39:34+00:00</time>
      </trkpt>
      <trkpt lat="50.81961" lon="5.77302">
        <ele>100</ele>
        <time>2026-09-04T11:39:37+00:00</time>
      </trkpt>
      <trkpt lat="50.81935" lon="5.77309">
        <ele>100</ele>
        <time>2026-09-04T11:39:40+00:00</time>
      </trkpt>
      <trkpt lat="50.81908" lon="5.7732">
        <ele>101</ele>
        <time>2026-09-04T11:39:43+00:00</time>
      </trkpt>
      <trkpt lat="50.81898" lon="5.77322">
        <ele>101</ele>
        <time>2026-09-04T11:39:46+00:00</time>
      </trkpt>
      <trkpt lat="50.81883" lon="5.77321">
        <ele>101</ele>
        <time>2026-09-04T11:39:49+00:00</time>
      </trkpt>
      <trkpt lat="50.81859" lon="5.77315">
        <ele>101</ele>
        <time>2026-09-04T11:39:52+00:00</time>
      </trkpt>
      <trkpt lat="50.81827" lon="5.77306">
        <ele>101</ele>
        <time>2026-09-04T11:39:55+00:00</time>
      </trkpt>
      <trkpt lat="50.81821" lon="5.77307">
        <ele>102</ele>
        <time>2026-09-04T11:39:58+00:00</time>
      </trkpt>
      <trkpt lat="50.81791" lon="5.77325">
        <ele>101</ele>
        <time>2026-09-04T11:40:01+00:00</time>
      </trkpt>
      <trkpt lat="50.81779" lon="5.77327">
        <ele>101</ele>
        <time>2026-09-04T11:40:04+00:00</time>
      </trkpt>
      <trkpt lat="50.81765" lon="5.77322">
        <ele>101</ele>
        <time>2026-09-04T11:40:07+00:00</time>
      </trkpt>
      <trkpt lat="50.81745" lon="5.77309">
        <ele>101</ele>
        <time>2026-09-04T11:40:10+00:00</time>
      </trkpt>
      <trkpt lat="50.81725" lon="5.77296">
        <ele>102</ele>
        <time>2026-09-04T11:40:13+00:00</time>
      </trkpt>
      <trkpt lat="50.81716" lon="5.77292">
        <ele>102</ele>
        <time>2026-09-04T11:40:16+00:00</time>
      </trkpt>
      <trkpt lat="50.8171" lon="5.77292">
        <ele>102</ele>
        <time>2026-09-04T11:40:19+00:00</time>
      </trkpt>
      <trkpt lat="50.81701" lon="5.773">
        <ele>103</ele>
        <time>2026-09-04T11:40:22+00:00</time>
      </trkpt>
      <trkpt lat="50.81685" lon="5.77327">
        <ele>103</ele>
        <time>2026-09-04T11:40:25+00:00</time>
      </trkpt>
      <trkpt lat="50.81665" lon="5.7736">
        <ele>103</ele>
        <time>2026-09-04T11:40:28+00:00</time>
      </trkpt>
      <trkpt lat="50.81632" lon="5.77402">
        <ele>103</ele>
        <time>2026-09-04T11:40:31+00:00</time>
      </trkpt>
      <trkpt lat="50.81623" lon="5.77405">
        <ele>103</ele>
        <time>2026-09-04T11:40:34+00:00</time>
      </trkpt>
      <trkpt lat="50.81615" lon="5.77395">
        <ele>103</ele>
        <time>2026-09-04T11:40:37+00:00</time>
      </trkpt>
      <trkpt lat="50.81616" lon="5.77387">
        <ele>103</ele>
        <time>2026-09-04T11:40:40+00:00</time>
      </trkpt>
      <trkpt lat="50.81606" lon="5.77342">
        <ele>104</ele>
        <time>2026-09-04T11:40:43+00:00</time>
      </trkpt>
      <trkpt lat="50.81595" lon="5.77298">
        <ele>106</ele>
        <time>2026-09-04T11:40:46+00:00</time>
      </trkpt>
      <trkpt lat="50.81577" lon="5.77217">
        <ele>110</ele>
        <time>2026-09-04T11:40:49+00:00</time>
      </trkpt>
      <trkpt lat="50.81569" lon="5.7718">
        <ele>112</ele>
        <time>2026-09-04T11:40:52+00:00</time>
      </trkpt>
      <trkpt lat="50.81558" lon="5.77129">
        <ele>116</ele>
        <time>2026-09-04T11:40:55+00:00</time>
      </trkpt>
      <trkpt lat="50.81547" lon="5.77084">
        <ele>116</ele>
        <time>2026-09-04T11:40:58+00:00</time>
      </trkpt>
      <trkpt lat="50.81515" lon="5.77084">
        <ele>116</ele>
        <time>2026-09-04T11:41:01+00:00</time>
      </trkpt>
      <trkpt lat="50.81483" lon="5.77084">
        <ele>115</ele>
        <time>2026-09-04T11:41:04+00:00</time>
      </trkpt>
      <trkpt lat="50.81421" lon="5.77085">
        <ele>112</ele>
        <time>2026-09-04T11:41:07+00:00</time>
      </trkpt>
      <trkpt lat="50.8141" lon="5.7705">
        <ele>112</ele>
        <time>2026-09-04T11:41:10+00:00</time>
      </trkpt>
      <trkpt lat="50.81398" lon="5.77006">
        <ele>115</ele>
        <time>2026-09-04T11:41:13+00:00</time>
      </trkpt>
      <trkpt lat="50.81386" lon="5.76961">
        <ele>117</ele>
        <time>2026-09-04T11:41:16+00:00</time>
      </trkpt>
      <trkpt lat="50.81368" lon="5.76893">
        <ele>119</ele>
        <time>2026-09-04T11:41:19+00:00</time>
      </trkpt>
      <trkpt lat="50.81361" lon="5.76861">
        <ele>122</ele>
        <time>2026-09-04T11:41:22+00:00</time>
      </trkpt>
      <trkpt lat="50.81354" lon="5.76827">
        <ele>122</ele>
        <time>2026-09-04T11:41:25+00:00</time>
      </trkpt>
      <trkpt lat="50.81348" lon="5.76792">
        <ele>123</ele>
        <time>2026-09-04T11:41:28+00:00</time>
      </trkpt>
      <trkpt lat="50.8134" lon="5.7675">
        <ele>124</ele>
        <time>2026-09-04T11:41:31+00:00</time>
      </trkpt>
      <trkpt lat="50.81338" lon="5.76716">
        <ele>125</ele>
        <time>2026-09-04T11:41:34+00:00</time>
      </trkpt>
      <trkpt lat="50.81336" lon="5.76681">
        <ele>127</ele>
        <time>2026-09-04T11:41:37+00:00</time>
      </trkpt>
      <trkpt lat="50.81334" lon="5.76655">
        <ele>128</ele>
        <time>2026-09-04T11:41:40+00:00</time>
      </trkpt>
      <trkpt lat="50.81333" lon="5.7665">
        <ele>127</ele>
        <time>2026-09-04T11:41:43+00:00</time>
      </trkpt>
      <trkpt lat="50.81327" lon="5.76646">
        <ele>128</ele>
        <time>2026-09-04T11:41:46+00:00</time>
      </trkpt>
      <trkpt lat="50.81297" lon="5.76635">
        <ele>127</ele>
        <time>2026-09-04T11:41:49+00:00</time>
      </trkpt>
      <trkpt lat="50.81271" lon="5.76615">
        <ele>127</ele>
        <time>2026-09-04T11:41:52+00:00</time>
      </trkpt>
      <trkpt lat="50.81247" lon="5.76585">
        <ele>127</ele>
        <time>2026-09-04T11:41:55+00:00</time>
      </trkpt>
      <trkpt lat="50.81226" lon="5.76555">
        <ele>127</ele>
        <time>2026-09-04T11:41:58+00:00</time>
      </trkpt>
      <trkpt lat="50.81204" lon="5.76524">
        <ele>127</ele>
        <time>2026-09-04T11:42:01+00:00</time>
      </trkpt>
      <trkpt lat="50.81182" lon="5.76492">
        <ele>127</ele>
        <time>2026-09-04T11:42:04+00:00</time>
      </trkpt>
      <trkpt lat="50.81161" lon="5.76505">
        <ele>127</ele>
        <time>2026-09-04T11:42:07+00:00</time>
      </trkpt>
      <trkpt lat="50.81137" lon="5.76519">
        <ele>129</ele>
        <time>2026-09-04T11:42:10+00:00</time>
      </trkpt>
      <trkpt lat="50.81133" lon="5.76513">
        <ele>129</ele>
        <time>2026-09-04T11:42:13+00:00</time>
      </trkpt>
      <trkpt lat="50.8111" lon="5.76495">
        <ele>131</ele>
        <time>2026-09-04T11:42:16+00:00</time>
      </trkpt>
      <trkpt lat="50.81065" lon="5.76462">
        <ele>133</ele>
        <time>2026-09-04T11:42:19+00:00</time>
      </trkpt>
      <trkpt lat="50.81045" lon="5.76444">
        <ele>134</ele>
        <time>2026-09-04T11:42:22+00:00</time>
      </trkpt>
      <trkpt lat="50.8102" lon="5.76423">
        <ele>135</ele>
        <time>2026-09-04T11:42:25+00:00</time>
      </trkpt>
      <trkpt lat="50.8101" lon="5.76408">
        <ele>136</ele>
        <time>2026-09-04T11:42:28+00:00</time>
      </trkpt>
      <trkpt lat="50.80993" lon="5.76374">
        <ele>137</ele>
        <time>2026-09-04T11:42:31+00:00</time>
      </trkpt>
      <trkpt lat="50.80982" lon="5.76344">
        <ele>139</ele>
        <time>2026-09-04T11:42:34+00:00</time>
      </trkpt>
      <trkpt lat="50.80969" lon="5.76311">
        <ele>139</ele>
        <time>2026-09-04T11:42:37+00:00</time>
      </trkpt>
      <trkpt lat="50.80963" lon="5.76301">
        <ele>140</ele>
        <time>2026-09-04T11:42:40+00:00</time>
      </trkpt>
      <trkpt lat="50.80938" lon="5.7628">
        <ele>139</ele>
        <time>2026-09-04T11:42:43+00:00</time>
      </trkpt>
      <trkpt lat="50.80913" lon="5.76259">
        <ele>139</ele>
        <time>2026-09-04T11:42:46+00:00</time>
      </trkpt>
      <trkpt lat="50.80873" lon="5.76225">
        <ele>139</ele>
        <time>2026-09-04T11:42:49+00:00</time>
      </trkpt>
      <trkpt lat="50.80898" lon="5.76213">
        <ele>139</ele>
        <time>2026-09-04T11:42:52+00:00</time>
      </trkpt>
      <trkpt lat="50.80937" lon="5.76194">
        <ele>139</ele>
        <time>2026-09-04T11:42:55+00:00</time>
      </trkpt>
      <trkpt lat="50.80967" lon="5.76171">
        <ele>137</ele>
        <time>2026-09-04T11:42:58+00:00</time>
      </trkpt>
      <trkpt lat="50.80998" lon="5.76149">
        <ele>137</ele>
        <time>2026-09-04T11:43:01+00:00</time>
      </trkpt>
      <trkpt lat="50.81028" lon="5.76126">
        <ele>136</ele>
        <time>2026-09-04T11:43:04+00:00</time>
      </trkpt>
      <trkpt lat="50.81079" lon="5.76088">
        <ele>136</ele>
        <time>2026-09-04T11:43:07+00:00</time>
      </trkpt>
      <trkpt lat="50.81111" lon="5.76066">
        <ele>136</ele>
        <time>2026-09-04T11:43:10+00:00</time>
      </trkpt>
      <trkpt lat="50.81142" lon="5.76044">
        <ele>136</ele>
        <time>2026-09-04T11:43:13+00:00</time>
      </trkpt>
      <trkpt lat="50.81174" lon="5.76021">
        <ele>133</ele>
        <time>2026-09-04T11:43:16+00:00</time>
      </trkpt>
      <trkpt lat="50.81206" lon="5.75999">
        <ele>132</ele>
        <time>2026-09-04T11:43:19+00:00</time>
      </trkpt>
      <trkpt lat="50.81249" lon="5.75969">
        <ele>131</ele>
        <time>2026-09-04T11:43:22+00:00</time>
      </trkpt>
      <trkpt lat="50.81269" lon="5.75952">
        <ele>130</ele>
        <time>2026-09-04T11:43:25+00:00</time>
      </trkpt>
      <trkpt lat="50.81293" lon="5.75931">
        <ele>129</ele>
        <time>2026-09-04T11:43:28+00:00</time>
      </trkpt>
      <trkpt lat="50.81314" lon="5.75906">
        <ele>129</ele>
        <time>2026-09-04T11:43:31+00:00</time>
      </trkpt>
      <trkpt lat="50.81349" lon="5.75866">
        <ele>128</ele>
        <time>2026-09-04T11:43:34+00:00</time>
      </trkpt>
      <trkpt lat="50.81373" lon="5.75858">
        <ele>127</ele>
        <time>2026-09-04T11:43:37+00:00</time>
      </trkpt>
      <trkpt lat="50.814" lon="5.75861">
        <ele>125</ele>
        <time>2026-09-04T11:43:40+00:00</time>
      </trkpt>
      <trkpt lat="50.81449" lon="5.75867">
        <ele>124</ele>
        <time>2026-09-04T11:43:43+00:00</time>
      </trkpt>
      <trkpt lat="50.81478" lon="5.75868">
        <ele>123</ele>
        <time>2026-09-04T11:43:46+00:00</time>
      </trkpt>
      <trkpt lat="50.81507" lon="5.7587">
        <ele>120</ele>
        <time>2026-09-04T11:43:49+00:00</time>
      </trkpt>
      <trkpt lat="50.81542" lon="5.75871">
        <ele>118</ele>
        <time>2026-09-04T11:43:52+00:00</time>
      </trkpt>
      <trkpt lat="50.81544" lon="5.75837">
        <ele>118</ele>
        <time>2026-09-04T11:43:55+00:00</time>
      </trkpt>
      <trkpt lat="50.81546" lon="5.75801">
        <ele>118</ele>
        <time>2026-09-04T11:43:58+00:00</time>
      </trkpt>
      <trkpt lat="50.81555" lon="5.75788">
        <ele>119</ele>
        <time>2026-09-04T11:44:01+00:00</time>
      </trkpt>
      <trkpt lat="50.81572" lon="5.75769">
        <ele>118</ele>
        <time>2026-09-04T11:44:04+00:00</time>
      </trkpt>
      <trkpt lat="50.81598" lon="5.7574">
        <ele>118</ele>
        <time>2026-09-04T11:44:07+00:00</time>
      </trkpt>
      <trkpt lat="50.8162" lon="5.75726">
        <ele>117</ele>
        <time>2026-09-04T11:44:10+00:00</time>
      </trkpt>
      <trkpt lat="50.81648" lon="5.75708">
        <ele>115</ele>
        <time>2026-09-04T11:44:13+00:00</time>
      </trkpt>
      <trkpt lat="50.81639" lon="5.7566">
        <ele>115</ele>
        <time>2026-09-04T11:44:16+00:00</time>
      </trkpt>
      <trkpt lat="50.81629" lon="5.75613">
        <ele>116</ele>
        <time>2026-09-04T11:44:19+00:00</time>
      </trkpt>
      <trkpt lat="50.81612" lon="5.75524">
        <ele>116</ele>
        <time>2026-09-04T11:44:22+00:00</time>
      </trkpt>
      <trkpt lat="50.81585" lon="5.75531">
        <ele>116</ele>
        <time>2026-09-04T11:44:25+00:00</time>
      </trkpt>
      <trkpt lat="50.81535" lon="5.75545">
        <ele>118</ele>
        <time>2026-09-04T11:44:28+00:00</time>
      </trkpt>
      <trkpt lat="50.81509" lon="5.75514">
        <ele>118</ele>
        <time>2026-09-04T11:44:31+00:00</time>
      </trkpt>
      <trkpt lat="50.81482" lon="5.75483">
        <ele>119</ele>
        <time>2026-09-04T11:44:34+00:00</time>
      </trkpt>
      <trkpt lat="50.8145" lon="5.7548">
        <ele>119</ele>
        <time>2026-09-04T11:44:37+00:00</time>
      </trkpt>
      <trkpt lat="50.81418" lon="5.75477">
        <ele>119</ele>
        <time>2026-09-04T11:44:40+00:00</time>
      </trkpt>
      <trkpt lat="50.81356" lon="5.75472">
        <ele>121</ele>
        <time>2026-09-04T11:44:43+00:00</time>
      </trkpt>
      <trkpt lat="50.81348" lon="5.75475">
        <ele>121</ele>
        <time>2026-09-04T11:44:46+00:00</time>
      </trkpt>
      <trkpt lat="50.81346" lon="5.75465">
        <ele>122</ele>
        <time>2026-09-04T11:44:49+00:00</time>
      </trkpt>
      <trkpt lat="50.81345" lon="5.75462">
        <ele>122</ele>
        <time>2026-09-04T11:44:52+00:00</time>
      </trkpt>
      <trkpt lat="50.81327" lon="5.75468">
        <ele>122</ele>
        <time>2026-09-04T11:44:55+00:00</time>
      </trkpt>
      <trkpt lat="50.81299" lon="5.75477">
        <ele>123</ele>
        <time>2026-09-04T11:44:58+00:00</time>
      </trkpt>
      <trkpt lat="50.81308" lon="5.75453">
        <ele>123</ele>
        <time>2026-09-04T11:45:01+00:00</time>
      </trkpt>
      <trkpt lat="50.81329" lon="5.75414">
        <ele>123</ele>
        <time>2026-09-04T11:45:04+00:00</time>
      </trkpt>
      <trkpt lat="50.81349" lon="5.75374">
        <ele>122</ele>
        <time>2026-09-04T11:45:07+00:00</time>
      </trkpt>
      <trkpt lat="50.8137" lon="5.75335">
        <ele>121</ele>
        <time>2026-09-04T11:45:10+00:00</time>
      </trkpt>
      <trkpt lat="50.81393" lon="5.75291">
        <ele>121</ele>
        <time>2026-09-04T11:45:13+00:00</time>
      </trkpt>
      <trkpt lat="50.81388" lon="5.75239">
        <ele>119</ele>
        <time>2026-09-04T11:45:16+00:00</time>
      </trkpt>
      <trkpt lat="50.81377" lon="5.752">
        <ele>119</ele>
        <time>2026-09-04T11:45:19+00:00</time>
      </trkpt>
      <trkpt lat="50.8136" lon="5.75183">
        <ele>121</ele>
        <time>2026-09-04T11:45:22+00:00</time>
      </trkpt>
      <trkpt lat="50.81337" lon="5.7518">
        <ele>122</ele>
        <time>2026-09-04T11:45:25+00:00</time>
      </trkpt>
      <trkpt lat="50.81308" lon="5.75182">
        <ele>123</ele>
        <time>2026-09-04T11:45:28+00:00</time>
      </trkpt>
      <trkpt lat="50.81279" lon="5.75184">
        <ele>124</ele>
        <time>2026-09-04T11:45:31+00:00</time>
      </trkpt>
      <trkpt lat="50.81244" lon="5.75186">
        <ele>123</ele>
        <time>2026-09-04T11:45:34+00:00</time>
      </trkpt>
      <trkpt lat="50.81217" lon="5.75182">
        <ele>123</ele>
        <time>2026-09-04T11:45:37+00:00</time>
      </trkpt>
      <trkpt lat="50.81169" lon="5.75174">
        <ele>123</ele>
        <time>2026-09-04T11:45:40+00:00</time>
      </trkpt>
      <trkpt lat="50.8115" lon="5.7519">
        <ele>123</ele>
        <time>2026-09-04T11:45:43+00:00</time>
      </trkpt>
      <trkpt lat="50.81131" lon="5.75207">
        <ele>123</ele>
        <time>2026-09-04T11:45:46+00:00</time>
      </trkpt>
      <trkpt lat="50.81113" lon="5.75244">
        <ele>124</ele>
        <time>2026-09-04T11:45:49+00:00</time>
      </trkpt>
      <trkpt lat="50.81096" lon="5.75282">
        <ele>124</ele>
        <time>2026-09-04T11:45:52+00:00</time>
      </trkpt>
      <trkpt lat="50.81074" lon="5.75328">
        <ele>124</ele>
        <time>2026-09-04T11:45:55+00:00</time>
      </trkpt>
      <trkpt lat="50.81055" lon="5.75334">
        <ele>123</ele>
        <time>2026-09-04T11:45:58+00:00</time>
      </trkpt>
      <trkpt lat="50.81044" lon="5.7533">
        <ele>123</ele>
        <time>2026-09-04T11:46:01+00:00</time>
      </trkpt>
      <trkpt lat="50.8104" lon="5.75282">
        <ele>124</ele>
        <time>2026-09-04T11:46:04+00:00</time>
      </trkpt>
      <trkpt lat="50.81036" lon="5.75234">
        <ele>125</ele>
        <time>2026-09-04T11:46:07+00:00</time>
      </trkpt>
      <trkpt lat="50.81033" lon="5.75185">
        <ele>126</ele>
        <time>2026-09-04T11:46:10+00:00</time>
      </trkpt>
      <trkpt lat="50.81027" lon="5.75112">
        <ele>126</ele>
        <time>2026-09-04T11:46:13+00:00</time>
      </trkpt>
      <trkpt lat="50.81039" lon="5.75061">
        <ele>126</ele>
        <time>2026-09-04T11:46:16+00:00</time>
      </trkpt>
      <trkpt lat="50.81051" lon="5.75011">
        <ele>126</ele>
        <time>2026-09-04T11:46:19+00:00</time>
      </trkpt>
      <trkpt lat="50.81063" lon="5.7496">
        <ele>126</ele>
        <time>2026-09-04T11:46:22+00:00</time>
      </trkpt>
      <trkpt lat="50.81075" lon="5.7491">
        <ele>124</ele>
        <time>2026-09-04T11:46:25+00:00</time>
      </trkpt>
      <trkpt lat="50.81088" lon="5.74857">
        <ele>123</ele>
        <time>2026-09-04T11:46:28+00:00</time>
      </trkpt>
      <trkpt lat="50.81058" lon="5.74842">
        <ele>123</ele>
        <time>2026-09-04T11:46:31+00:00</time>
      </trkpt>
      <trkpt lat="50.81027" lon="5.74827">
        <ele>123</ele>
        <time>2026-09-04T11:46:34+00:00</time>
      </trkpt>
      <trkpt lat="50.80967" lon="5.74798">
        <ele>123</ele>
        <time>2026-09-04T11:46:37+00:00</time>
      </trkpt>
      <trkpt lat="50.80982" lon="5.74742">
        <ele>127</ele>
        <time>2026-09-04T11:46:40+00:00</time>
      </trkpt>
      <trkpt lat="50.80996" lon="5.74712">
        <ele>131</ele>
        <time>2026-09-04T11:46:43+00:00</time>
      </trkpt>
      <trkpt lat="50.80982" lon="5.74698">
        <ele>133</ele>
        <time>2026-09-04T11:46:46+00:00</time>
      </trkpt>
      <trkpt lat="50.80961" lon="5.74683">
        <ele>129</ele>
        <time>2026-09-04T11:46:49+00:00</time>
      </trkpt>
      <trkpt lat="50.80952" lon="5.74683">
        <ele>132</ele>
        <time>2026-09-04T11:46:52+00:00</time>
      </trkpt>
      <trkpt lat="50.80924" lon="5.74696">
        <ele>128</ele>
        <time>2026-09-04T11:46:55+00:00</time>
      </trkpt>
      <trkpt lat="50.80922" lon="5.74695">
        <ele>128</ele>
        <time>2026-09-04T11:46:58+00:00</time>
      </trkpt>
      <trkpt lat="50.80919" lon="5.74688">
        <ele>127</ele>
        <time>2026-09-04T11:47:01+00:00</time>
      </trkpt>
      <trkpt lat="50.80915" lon="5.74637">
        <ele>127</ele>
        <time>2026-09-04T11:47:04+00:00</time>
      </trkpt>
      <trkpt lat="50.80918" lon="5.74592">
        <ele>125</ele>
        <time>2026-09-04T11:47:07+00:00</time>
      </trkpt>
      <trkpt lat="50.80922" lon="5.74558">
        <ele>125</ele>
        <time>2026-09-04T11:47:10+00:00</time>
      </trkpt>
      <trkpt lat="50.80922" lon="5.74503">
        <ele>122</ele>
        <time>2026-09-04T11:47:13+00:00</time>
      </trkpt>
      <trkpt lat="50.80915" lon="5.74467">
        <ele>120</ele>
        <time>2026-09-04T11:47:16+00:00</time>
      </trkpt>
      <trkpt lat="50.80915" lon="5.74442">
        <ele>121</ele>
        <time>2026-09-04T11:47:19+00:00</time>
      </trkpt>
      <trkpt lat="50.80925" lon="5.74423">
        <ele>120</ele>
        <time>2026-09-04T11:47:22+00:00</time>
      </trkpt>
      <trkpt lat="50.80937" lon="5.744">
        <ele>119</ele>
        <time>2026-09-04T11:47:25+00:00</time>
      </trkpt>
      <trkpt lat="50.80939" lon="5.74393">
        <ele>118</ele>
        <time>2026-09-04T11:47:28+00:00</time>
      </trkpt>
      <trkpt lat="50.80938" lon="5.74385">
        <ele>116</ele>
        <time>2026-09-04T11:47:31+00:00</time>
      </trkpt>
      <trkpt lat="50.80935" lon="5.74381">
        <ele>116</ele>
        <time>2026-09-04T11:47:34+00:00</time>
      </trkpt>
      <trkpt lat="50.80954" lon="5.74346">
        <ele>106</ele>
        <time>2026-09-04T11:47:37+00:00</time>
      </trkpt>
      <trkpt lat="50.80972" lon="5.7431">
        <ele>98</ele>
        <time>2026-09-04T11:47:40+00:00</time>
      </trkpt>
      <trkpt lat="50.80991" lon="5.74275">
        <ele>97</ele>
        <time>2026-09-04T11:47:43+00:00</time>
      </trkpt>
      <trkpt lat="50.81013" lon="5.74232">
        <ele>97</ele>
        <time>2026-09-04T11:47:46+00:00</time>
      </trkpt>
      <trkpt lat="50.81015" lon="5.74234">
        <ele>97</ele>
        <time>2026-09-04T11:47:49+00:00</time>
      </trkpt>
      <trkpt lat="50.81034" lon="5.74235">
        <ele>88</ele>
        <time>2026-09-04T11:47:52+00:00</time>
      </trkpt>
      <trkpt lat="50.8106" lon="5.74243">
        <ele>86</ele>
        <time>2026-09-04T11:47:55+00:00</time>
      </trkpt>
      <trkpt lat="50.8108" lon="5.74246">
        <ele>86</ele>
        <time>2026-09-04T11:47:58+00:00</time>
      </trkpt>
      <trkpt lat="50.81089" lon="5.74249">
        <ele>85</ele>
        <time>2026-09-04T11:48:01+00:00</time>
      </trkpt>
      <trkpt lat="50.81097" lon="5.74261">
        <ele>86</ele>
        <time>2026-09-04T11:48:04+00:00</time>
      </trkpt>
      <trkpt lat="50.8109" lon="5.74279">
        <ele>90</ele>
        <time>2026-09-04T11:48:07+00:00</time>
      </trkpt>
      <trkpt lat="50.81087" lon="5.74296">
        <ele>98</ele>
        <time>2026-09-04T11:48:10+00:00</time>
      </trkpt>
      <trkpt lat="50.81087" lon="5.74307">
        <ele>101</ele>
        <time>2026-09-04T11:48:13+00:00</time>
      </trkpt>
      <trkpt lat="50.81095" lon="5.74354">
        <ele>111</ele>
        <time>2026-09-04T11:48:16+00:00</time>
      </trkpt>
      <trkpt lat="50.811" lon="5.74395">
        <ele>122</ele>
        <time>2026-09-04T11:48:19+00:00</time>
      </trkpt>
      <trkpt lat="50.81109" lon="5.7444">
        <ele>124</ele>
        <time>2026-09-04T11:48:22+00:00</time>
      </trkpt>
      <trkpt lat="50.81112" lon="5.74483">
        <ele>126</ele>
        <time>2026-09-04T11:48:25+00:00</time>
      </trkpt>
      <trkpt lat="50.81108" lon="5.74501">
        <ele>132</ele>
        <time>2026-09-04T11:48:28+00:00</time>
      </trkpt>
      <trkpt lat="50.81091" lon="5.74536">
        <ele>134</ele>
        <time>2026-09-04T11:48:31+00:00</time>
      </trkpt>
      <trkpt lat="50.81074" lon="5.74572">
        <ele>138</ele>
        <time>2026-09-04T11:48:34+00:00</time>
      </trkpt>
      <trkpt lat="50.81044" lon="5.74635">
        <ele>142</ele>
        <time>2026-09-04T11:48:37+00:00</time>
      </trkpt>
      <trkpt lat="50.81048" lon="5.74639">
        <ele>142</ele>
        <time>2026-09-04T11:48:40+00:00</time>
      </trkpt>
      <trkpt lat="50.81072" lon="5.7466">
        <ele>143</ele>
        <time>2026-09-04T11:48:43+00:00</time>
      </trkpt>
      <trkpt lat="50.81097" lon="5.74681">
        <ele>144</ele>
        <time>2026-09-04T11:48:46+00:00</time>
      </trkpt>
      <trkpt lat="50.81125" lon="5.74705">
        <ele>145</ele>
        <time>2026-09-04T11:48:49+00:00</time>
      </trkpt>
      <trkpt lat="50.81153" lon="5.7473">
        <ele>145</ele>
        <time>2026-09-04T11:48:52+00:00</time>
      </trkpt>
      <trkpt lat="50.81181" lon="5.74755">
        <ele>145</ele>
        <time>2026-09-04T11:48:55+00:00</time>
      </trkpt>
      <trkpt lat="50.81208" lon="5.7478">
        <ele>145</ele>
        <time>2026-09-04T11:48:58+00:00</time>
      </trkpt>
      <trkpt lat="50.81237" lon="5.74806">
        <ele>145</ele>
        <time>2026-09-04T11:49:01+00:00</time>
      </trkpt>
      <trkpt lat="50.81232" lon="5.74819">
        <ele>147</ele>
        <time>2026-09-04T11:49:04+00:00</time>
      </trkpt>
      <trkpt lat="50.81216" lon="5.7485">
        <ele>145</ele>
        <time>2026-09-04T11:49:07+00:00</time>
      </trkpt>
      <trkpt lat="50.81204" lon="5.74866">
        <ele>145</ele>
        <time>2026-09-04T11:49:10+00:00</time>
      </trkpt>
      <trkpt lat="50.81194" lon="5.74874">
        <ele>146</ele>
        <time>2026-09-04T11:49:13+00:00</time>
      </trkpt>
      <trkpt lat="50.81188" lon="5.74876">
        <ele>146</ele>
        <time>2026-09-04T11:49:16+00:00</time>
      </trkpt>
      <trkpt lat="50.81177" lon="5.74876">
        <ele>147</ele>
        <time>2026-09-04T11:49:19+00:00</time>
      </trkpt>
      <trkpt lat="50.81162" lon="5.74872">
        <ele>148</ele>
        <time>2026-09-04T11:49:22+00:00</time>
      </trkpt>
      <trkpt lat="50.81155" lon="5.74866">
        <ele>148</ele>
        <time>2026-09-04T11:49:25+00:00</time>
      </trkpt>
      <trkpt lat="50.81153" lon="5.74873">
        <ele>148</ele>
        <time>2026-09-04T11:49:28+00:00</time>
      </trkpt>
      <trkpt lat="50.81144" lon="5.74915">
        <ele>148</ele>
        <time>2026-09-04T11:49:31+00:00</time>
      </trkpt>
      <trkpt lat="50.81134" lon="5.74956">
        <ele>147</ele>
        <time>2026-09-04T11:49:34+00:00</time>
      </trkpt>
      <trkpt lat="50.81123" lon="5.75007">
        <ele>141</ele>
        <time>2026-09-04T11:49:37+00:00</time>
      </trkpt>
      <trkpt lat="50.81124" lon="5.7502">
        <ele>139</ele>
        <time>2026-09-04T11:49:40+00:00</time>
      </trkpt>
      <trkpt lat="50.81127" lon="5.75023">
        <ele>139</ele>
        <time>2026-09-04T11:49:43+00:00</time>
      </trkpt>
      <trkpt lat="50.81136" lon="5.75025">
        <ele>141</ele>
        <time>2026-09-04T11:49:46+00:00</time>
      </trkpt>
      <trkpt lat="50.81143" lon="5.75019">
        <ele>144</ele>
        <time>2026-09-04T11:49:49+00:00</time>
      </trkpt>
      <trkpt lat="50.81158" lon="5.75">
        <ele>145</ele>
        <time>2026-09-04T11:49:52+00:00</time>
      </trkpt>
      <trkpt lat="50.81175" lon="5.74979">
        <ele>145</ele>
        <time>2026-09-04T11:49:55+00:00</time>
      </trkpt>
      <trkpt lat="50.81198" lon="5.74951">
        <ele>144</ele>
        <time>2026-09-04T11:49:58+00:00</time>
      </trkpt>
      <trkpt lat="50.81221" lon="5.74923">
        <ele>143</ele>
        <time>2026-09-04T11:50:01+00:00</time>
      </trkpt>
      <trkpt lat="50.81249" lon="5.7489">
        <ele>142</ele>
        <time>2026-09-04T11:50:04+00:00</time>
      </trkpt>
      <trkpt lat="50.8128" lon="5.7485">
        <ele>137</ele>
        <time>2026-09-04T11:50:07+00:00</time>
      </trkpt>
      <trkpt lat="50.81294" lon="5.74836">
        <ele>133</ele>
        <time>2026-09-04T11:50:10+00:00</time>
      </trkpt>
      <trkpt lat="50.81309" lon="5.74809">
        <ele>134</ele>
        <time>2026-09-04T11:50:13+00:00</time>
      </trkpt>
      <trkpt lat="50.81308" lon="5.74802">
        <ele>130</ele>
        <time>2026-09-04T11:50:16+00:00</time>
      </trkpt>
      <trkpt lat="50.81292" lon="5.74766">
        <ele>132</ele>
        <time>2026-09-04T11:50:19+00:00</time>
      </trkpt>
      <trkpt lat="50.81276" lon="5.7473">
        <ele>130</ele>
        <time>2026-09-04T11:50:22+00:00</time>
      </trkpt>
      <trkpt lat="50.81256" lon="5.74685">
        <ele>130</ele>
        <time>2026-09-04T11:50:25+00:00</time>
      </trkpt>
      <trkpt lat="50.81238" lon="5.74649">
        <ele>130</ele>
        <time>2026-09-04T11:50:28+00:00</time>
      </trkpt>
      <trkpt lat="50.81221" lon="5.74613">
        <ele>126</ele>
        <time>2026-09-04T11:50:31+00:00</time>
      </trkpt>
      <trkpt lat="50.81202" lon="5.74574">
        <ele>125</ele>
        <time>2026-09-04T11:50:34+00:00</time>
      </trkpt>
      <trkpt lat="50.81186" lon="5.74546">
        <ele>123</ele>
        <time>2026-09-04T11:50:37+00:00</time>
      </trkpt>
      <trkpt lat="50.81166" lon="5.7451">
        <ele>121</ele>
        <time>2026-09-04T11:50:40+00:00</time>
      </trkpt>
      <trkpt lat="50.8116" lon="5.74501">
        <ele>120</ele>
        <time>2026-09-04T11:50:43+00:00</time>
      </trkpt>
      <trkpt lat="50.81168" lon="5.74503">
        <ele>120</ele>
        <time>2026-09-04T11:50:46+00:00</time>
      </trkpt>
      <trkpt lat="50.81183" lon="5.74516">
        <ele>116</ele>
        <time>2026-09-04T11:50:49+00:00</time>
      </trkpt>
      <trkpt lat="50.81202" lon="5.74532">
        <ele>111</ele>
        <time>2026-09-04T11:50:52+00:00</time>
      </trkpt>
      <trkpt lat="50.81223" lon="5.74562">
        <ele>110</ele>
        <time>2026-09-04T11:50:55+00:00</time>
      </trkpt>
      <trkpt lat="50.81244" lon="5.74592">
        <ele>110</ele>
        <time>2026-09-04T11:50:58+00:00</time>
      </trkpt>
      <trkpt lat="50.81266" lon="5.74623">
        <ele>110</ele>
        <time>2026-09-04T11:51:01+00:00</time>
      </trkpt>
      <trkpt lat="50.81267" lon="5.74627">
        <ele>110</ele>
        <time>2026-09-04T11:51:04+00:00</time>
      </trkpt>
      <trkpt lat="50.8127" lon="5.74654">
        <ele>114</ele>
        <time>2026-09-04T11:51:07+00:00</time>
      </trkpt>
      <trkpt lat="50.81274" lon="5.74671">
        <ele>119</ele>
        <time>2026-09-04T11:51:10+00:00</time>
      </trkpt>
      <trkpt lat="50.81282" lon="5.7469">
        <ele>119</ele>
        <time>2026-09-04T11:51:13+00:00</time>
      </trkpt>
      <trkpt lat="50.81283" lon="5.74724">
        <ele>123</ele>
        <time>2026-09-04T11:51:16+00:00</time>
      </trkpt>
      <trkpt lat="50.81294" lon="5.74735">
        <ele>127</ele>
        <time>2026-09-04T11:51:19+00:00</time>
      </trkpt>
      <trkpt lat="50.81308" lon="5.74753">
        <ele>121</ele>
        <time>2026-09-04T11:51:22+00:00</time>
      </trkpt>
      <trkpt lat="50.8132" lon="5.74756">
        <ele>123</ele>
        <time>2026-09-04T11:51:25+00:00</time>
      </trkpt>
      <trkpt lat="50.81328" lon="5.74762">
        <ele>120</ele>
        <time>2026-09-04T11:51:28+00:00</time>
      </trkpt>
      <trkpt lat="50.81335" lon="5.74773">
        <ele>117</ele>
        <time>2026-09-04T11:51:31+00:00</time>
      </trkpt>
      <trkpt lat="50.81345" lon="5.74783">
        <ele>116</ele>
        <time>2026-09-04T11:51:34+00:00</time>
      </trkpt>
      <trkpt lat="50.81355" lon="5.74785">
        <ele>113</ele>
        <time>2026-09-04T11:51:37+00:00</time>
      </trkpt>
      <trkpt lat="50.81364" lon="5.74791">
        <ele>111</ele>
        <time>2026-09-04T11:51:40+00:00</time>
      </trkpt>
      <trkpt lat="50.81385" lon="5.74799">
        <ele>105</ele>
        <time>2026-09-04T11:51:43+00:00</time>
      </trkpt>
      <trkpt lat="50.81397" lon="5.74797">
        <ele>103</ele>
        <time>2026-09-04T11:51:46+00:00</time>
      </trkpt>
      <trkpt lat="50.81407" lon="5.74786">
        <ele>99</ele>
        <time>2026-09-04T11:51:49+00:00</time>
      </trkpt>
      <trkpt lat="50.81416" lon="5.74781">
        <ele>94</ele>
        <time>2026-09-04T11:51:52+00:00</time>
      </trkpt>
      <trkpt lat="50.81433" lon="5.74781">
        <ele>83</ele>
        <time>2026-09-04T11:51:55+00:00</time>
      </trkpt>
      <trkpt lat="50.81451" lon="5.74782">
        <ele>78</ele>
        <time>2026-09-04T11:51:58+00:00</time>
      </trkpt>
      <trkpt lat="50.81475" lon="5.7479">
        <ele>76</ele>
        <time>2026-09-04T11:52:01+00:00</time>
      </trkpt>
      <trkpt lat="50.81504" lon="5.74804">
        <ele>73</ele>
        <time>2026-09-04T11:52:04+00:00</time>
      </trkpt>
      <trkpt lat="50.8152" lon="5.74814">
        <ele>73</ele>
        <time>2026-09-04T11:52:07+00:00</time>
      </trkpt>
      <trkpt lat="50.81525" lon="5.74826">
        <ele>74</ele>
        <time>2026-09-04T11:52:10+00:00</time>
      </trkpt>
      <trkpt lat="50.81535" lon="5.7482">
        <ele>73</ele>
        <time>2026-09-04T11:52:13+00:00</time>
      </trkpt>
      <trkpt lat="50.8155" lon="5.74803">
        <ele>76</ele>
        <time>2026-09-04T11:52:16+00:00</time>
      </trkpt>
      <trkpt lat="50.81531" lon="5.7477">
        <ele>76</ele>
        <time>2026-09-04T11:52:19+00:00</time>
      </trkpt>
      <trkpt lat="50.81494" lon="5.74705">
        <ele>75</ele>
        <time>2026-09-04T11:52:22+00:00</time>
      </trkpt>
      <trkpt lat="50.81483" lon="5.7468">
        <ele>75</ele>
        <time>2026-09-04T11:52:25+00:00</time>
      </trkpt>
      <trkpt lat="50.81472" lon="5.74651">
        <ele>73</ele>
        <time>2026-09-04T11:52:28+00:00</time>
      </trkpt>
      <trkpt lat="50.81461" lon="5.74616">
        <ele>73</ele>
        <time>2026-09-04T11:52:31+00:00</time>
      </trkpt>
      <trkpt lat="50.81447" lon="5.7457">
        <ele>72</ele>
        <time>2026-09-04T11:52:34+00:00</time>
      </trkpt>
      <trkpt lat="50.81431" lon="5.74525">
        <ele>70</ele>
        <time>2026-09-04T11:52:37+00:00</time>
      </trkpt>
      <trkpt lat="50.81416" lon="5.7449">
        <ele>70</ele>
        <time>2026-09-04T11:52:40+00:00</time>
      </trkpt>
      <trkpt lat="50.81398" lon="5.7446">
        <ele>70</ele>
        <time>2026-09-04T11:52:43+00:00</time>
      </trkpt>
      <trkpt lat="50.81369" lon="5.74411">
        <ele>70</ele>
        <time>2026-09-04T11:52:46+00:00</time>
      </trkpt>
      <trkpt lat="50.81364" lon="5.74398">
        <ele>70</ele>
        <time>2026-09-04T11:52:49+00:00</time>
      </trkpt>
      <trkpt lat="50.81357" lon="5.74362">
        <ele>70</ele>
        <time>2026-09-04T11:52:52+00:00</time>
      </trkpt>
      <trkpt lat="50.81344" lon="5.743">
        <ele>70</ele>
        <time>2026-09-04T11:52:55+00:00</time>
      </trkpt>
      <trkpt lat="50.81367" lon="5.74303">
        <ele>69</ele>
        <time>2026-09-04T11:52:58+00:00</time>
      </trkpt>
      <trkpt lat="50.81384" lon="5.74301">
        <ele>67</ele>
        <time>2026-09-04T11:53:01+00:00</time>
      </trkpt>
      <trkpt lat="50.8139" lon="5.74298">
        <ele>67</ele>
        <time>2026-09-04T11:53:04+00:00</time>
      </trkpt>
      <trkpt lat="50.81395" lon="5.74289">
        <ele>66</ele>
        <time>2026-09-04T11:53:07+00:00</time>
      </trkpt>
      <trkpt lat="50.814" lon="5.74273">
        <ele>66</ele>
        <time>2026-09-04T11:53:10+00:00</time>
      </trkpt>
      <trkpt lat="50.814" lon="5.74321">
        <ele>65</ele>
        <time>2026-09-04T11:53:13+00:00</time>
      </trkpt>
      <trkpt lat="50.81406" lon="5.74338">
        <ele>65</ele>
        <time>2026-09-04T11:53:16+00:00</time>
      </trkpt>
      <trkpt lat="50.81413" lon="5.74351">
        <ele>65</ele>
        <time>2026-09-04T11:53:19+00:00</time>
      </trkpt>
      <trkpt lat="50.81432" lon="5.74373">
        <ele>65</ele>
        <time>2026-09-04T11:53:22+00:00</time>
      </trkpt>
      <trkpt lat="50.81446" lon="5.74394">
        <ele>65</ele>
        <time>2026-09-04T11:53:25+00:00</time>
      </trkpt>
      <trkpt lat="50.81457" lon="5.74421">
        <ele>69</ele>
        <time>2026-09-04T11:53:28+00:00</time>
      </trkpt>
      <trkpt lat="50.8146" lon="5.74442">
        <ele>71</ele>
        <time>2026-09-04T11:53:31+00:00</time>
      </trkpt>
      <trkpt lat="50.81459" lon="5.7448">
        <ele>73</ele>
        <time>2026-09-04T11:53:34+00:00</time>
      </trkpt>
      <trkpt lat="50.81458" lon="5.74555">
        <ele>73</ele>
        <time>2026-09-04T11:53:37+00:00</time>
      </trkpt>
      <trkpt lat="50.81463" lon="5.74583">
        <ele>73</ele>
        <time>2026-09-04T11:53:40+00:00</time>
      </trkpt>
      <trkpt lat="50.81473" lon="5.74622">
        <ele>73</ele>
        <time>2026-09-04T11:53:43+00:00</time>
      </trkpt>
      <trkpt lat="50.81492" lon="5.74673">
        <ele>77</ele>
        <time>2026-09-04T11:53:46+00:00</time>
      </trkpt>
      <trkpt lat="50.81502" lon="5.74667">
        <ele>80</ele>
        <time>2026-09-04T11:53:49+00:00</time>
      </trkpt>
      <trkpt lat="50.81508" lon="5.74658">
        <ele>80</ele>
        <time>2026-09-04T11:53:52+00:00</time>
      </trkpt>
      <trkpt lat="50.81512" lon="5.74644">
        <ele>83</ele>
        <time>2026-09-04T11:53:55+00:00</time>
      </trkpt>
      <trkpt lat="50.81515" lon="5.74602">
        <ele>81</ele>
        <time>2026-09-04T11:53:58+00:00</time>
      </trkpt>
      <trkpt lat="50.81519" lon="5.7456">
        <ele>82</ele>
        <time>2026-09-04T11:54:01+00:00</time>
      </trkpt>
      <trkpt lat="50.81523" lon="5.74504">
        <ele>83</ele>
        <time>2026-09-04T11:54:04+00:00</time>
      </trkpt>
      <trkpt lat="50.81518" lon="5.74463">
        <ele>85</ele>
        <time>2026-09-04T11:54:07+00:00</time>
      </trkpt>
      <trkpt lat="50.81518" lon="5.74445">
        <ele>87</ele>
        <time>2026-09-04T11:54:10+00:00</time>
      </trkpt>
      <trkpt lat="50.81516" lon="5.74413">
        <ele>86</ele>
        <time>2026-09-04T11:54:13+00:00</time>
      </trkpt>
      <trkpt lat="50.81512" lon="5.74367">
        <ele>86</ele>
        <time>2026-09-04T11:54:16+00:00</time>
      </trkpt>
      <trkpt lat="50.81511" lon="5.74315">
        <ele>85</ele>
        <time>2026-09-04T11:54:19+00:00</time>
      </trkpt>
      <trkpt lat="50.81507" lon="5.74286">
        <ele>85</ele>
        <time>2026-09-04T11:54:22+00:00</time>
      </trkpt>
      <trkpt lat="50.81504" lon="5.7425">
        <ele>85</ele>
        <time>2026-09-04T11:54:25+00:00</time>
      </trkpt>
      <trkpt lat="50.815" lon="5.74209">
        <ele>81</ele>
        <time>2026-09-04T11:54:28+00:00</time>
      </trkpt>
      <trkpt lat="50.81501" lon="5.74187">
        <ele>79</ele>
        <time>2026-09-04T11:54:31+00:00</time>
      </trkpt>
      <trkpt lat="50.81503" lon="5.74181">
        <ele>81</ele>
        <time>2026-09-04T11:54:34+00:00</time>
      </trkpt>
      <trkpt lat="50.8151" lon="5.74177">
        <ele>80</ele>
        <time>2026-09-04T11:54:37+00:00</time>
      </trkpt>
      <trkpt lat="50.81525" lon="5.7418">
        <ele>82</ele>
        <time>2026-09-04T11:54:40+00:00</time>
      </trkpt>
      <trkpt lat="50.81538" lon="5.74185">
        <ele>84</ele>
        <time>2026-09-04T11:54:43+00:00</time>
      </trkpt>
      <trkpt lat="50.81547" lon="5.74186">
        <ele>85</ele>
        <time>2026-09-04T11:54:46+00:00</time>
      </trkpt>
      <trkpt lat="50.81554" lon="5.74183">
        <ele>87</ele>
        <time>2026-09-04T11:54:49+00:00</time>
      </trkpt>
      <trkpt lat="50.81568" lon="5.74168">
        <ele>84</ele>
        <time>2026-09-04T11:54:52+00:00</time>
      </trkpt>
      <trkpt lat="50.81579" lon="5.7415">
        <ele>86</ele>
        <time>2026-09-04T11:54:55+00:00</time>
      </trkpt>
      <trkpt lat="50.81593" lon="5.74122">
        <ele>84</ele>
        <time>2026-09-04T11:54:58+00:00</time>
      </trkpt>
      <trkpt lat="50.81621" lon="5.74068">
        <ele>78</ele>
        <time>2026-09-04T11:55:01+00:00</time>
      </trkpt>
      <trkpt lat="50.81629" lon="5.7405">
        <ele>77</ele>
        <time>2026-09-04T11:55:04+00:00</time>
      </trkpt>
      <trkpt lat="50.8164" lon="5.74009">
        <ele>73</ele>
        <time>2026-09-04T11:55:07+00:00</time>
      </trkpt>
      <trkpt lat="50.81646" lon="5.73975">
        <ele>72</ele>
        <time>2026-09-04T11:55:10+00:00</time>
      </trkpt>
      <trkpt lat="50.81654" lon="5.7392">
        <ele>71</ele>
        <time>2026-09-04T11:55:13+00:00</time>
      </trkpt>
      <trkpt lat="50.81654" lon="5.73897">
        <ele>70</ele>
        <time>2026-09-04T11:55:16+00:00</time>
      </trkpt>
      <trkpt lat="50.81651" lon="5.73877">
        <ele>69</ele>
        <time>2026-09-04T11:55:19+00:00</time>
      </trkpt>
      <trkpt lat="50.81638" lon="5.73844">
        <ele>66</ele>
        <time>2026-09-04T11:55:22+00:00</time>
      </trkpt>
      <trkpt lat="50.81621" lon="5.73801">
        <ele>64</ele>
        <time>2026-09-04T11:55:25+00:00</time>
      </trkpt>
      <trkpt lat="50.81617" lon="5.73776">
        <ele>62</ele>
        <time>2026-09-04T11:55:28+00:00</time>
      </trkpt>
      <trkpt lat="50.81611" lon="5.73759">
        <ele>62</ele>
        <time>2026-09-04T11:55:31+00:00</time>
      </trkpt>
      <trkpt lat="50.81598" lon="5.73732">
        <ele>61</ele>
        <time>2026-09-04T11:55:34+00:00</time>
      </trkpt>
      <trkpt lat="50.81584" lon="5.73703">
        <ele>61</ele>
        <time>2026-09-04T11:55:37+00:00</time>
      </trkpt>
      <trkpt lat="50.81608" lon="5.73653">
        <ele>61</ele>
        <time>2026-09-04T11:55:40+00:00</time>
      </trkpt>
      <trkpt lat="50.81625" lon="5.73628">
        <ele>61</ele>
        <time>2026-09-04T11:55:43+00:00</time>
      </trkpt>
      <trkpt lat="50.81645" lon="5.73598">
        <ele>61</ele>
        <time>2026-09-04T11:55:46+00:00</time>
      </trkpt>
      <trkpt lat="50.81654" lon="5.73557">
        <ele>60</ele>
        <time>2026-09-04T11:55:49+00:00</time>
      </trkpt>
      <trkpt lat="50.81669" lon="5.73485">
        <ele>59</ele>
        <time>2026-09-04T11:55:52+00:00</time>
      </trkpt>
      <trkpt lat="50.81676" lon="5.73453">
        <ele>59</ele>
        <time>2026-09-04T11:55:55+00:00</time>
      </trkpt>
      <trkpt lat="50.81684" lon="5.73421">
        <ele>59</ele>
        <time>2026-09-04T11:55:58+00:00</time>
      </trkpt>
      <trkpt lat="50.81698" lon="5.73381">
        <ele>59</ele>
        <time>2026-09-04T11:56:01+00:00</time>
      </trkpt>
      <trkpt lat="50.81712" lon="5.73342">
        <ele>58</ele>
        <time>2026-09-04T11:56:04+00:00</time>
      </trkpt>
      <trkpt lat="50.81728" lon="5.73298">
        <ele>58</ele>
        <time>2026-09-04T11:56:07+00:00</time>
      </trkpt>
      <trkpt lat="50.81741" lon="5.73265">
        <ele>58</ele>
        <time>2026-09-04T11:56:10+00:00</time>
      </trkpt>
      <trkpt lat="50.81757" lon="5.73223">
        <ele>58</ele>
        <time>2026-09-04T11:56:13+00:00</time>
      </trkpt>
      <trkpt lat="50.81768" lon="5.73189">
        <ele>58</ele>
        <time>2026-09-04T11:56:16+00:00</time>
      </trkpt>
      <trkpt lat="50.81783" lon="5.73144">
        <ele>58</ele>
        <time>2026-09-04T11:56:19+00:00</time>
      </trkpt>
      <trkpt lat="50.81787" lon="5.73125">
        <ele>58</ele>
        <time>2026-09-04T11:56:22+00:00</time>
      </trkpt>
      <trkpt lat="50.81791" lon="5.73096">
        <ele>58</ele>
        <time>2026-09-04T11:56:25+00:00</time>
      </trkpt>
      <trkpt lat="50.81797" lon="5.73056">
        <ele>58</ele>
        <time>2026-09-04T11:56:28+00:00</time>
      </trkpt>
      <trkpt lat="50.81796" lon="5.73042">
        <ele>57</ele>
        <time>2026-09-04T11:56:31+00:00</time>
      </trkpt>
      <trkpt lat="50.8179" lon="5.73001">
        <ele>58</ele>
        <time>2026-09-04T11:56:34+00:00</time>
      </trkpt>
      <trkpt lat="50.81784" lon="5.7296">
        <ele>56</ele>
        <time>2026-09-04T11:56:37+00:00</time>
      </trkpt>
      <trkpt lat="50.81776" lon="5.72909">
        <ele>56</ele>
        <time>2026-09-04T11:56:40+00:00</time>
      </trkpt>
      <trkpt lat="50.81765" lon="5.72864">
        <ele>57</ele>
        <time>2026-09-04T11:56:43+00:00</time>
      </trkpt>
      <trkpt lat="50.81739" lon="5.72862">
        <ele>57</ele>
        <time>2026-09-04T11:56:46+00:00</time>
      </trkpt>
      <trkpt lat="50.81695" lon="5.72858">
        <ele>57</ele>
        <time>2026-09-04T11:56:49+00:00</time>
      </trkpt>
      <trkpt lat="50.8169" lon="5.72855">
        <ele>57</ele>
        <time>2026-09-04T11:56:52+00:00</time>
      </trkpt>
      <trkpt lat="50.81687" lon="5.72849">
        <ele>57</ele>
        <time>2026-09-04T11:56:55+00:00</time>
      </trkpt>
      <trkpt lat="50.81696" lon="5.7284">
        <ele>57</ele>
        <time>2026-09-04T11:56:58+00:00</time>
      </trkpt>
      <trkpt lat="50.81712" lon="5.72815">
        <ele>56</ele>
        <time>2026-09-04T11:57:01+00:00</time>
      </trkpt>
      <trkpt lat="50.81734" lon="5.72805">
        <ele>56</ele>
        <time>2026-09-04T11:57:04+00:00</time>
      </trkpt>
      <trkpt lat="50.81739" lon="5.72796">
        <ele>56</ele>
        <time>2026-09-04T11:57:07+00:00</time>
      </trkpt>
      <trkpt lat="50.81747" lon="5.7277">
        <ele>55</ele>
        <time>2026-09-04T11:57:10+00:00</time>
      </trkpt>
      <trkpt lat="50.81728" lon="5.72741">
        <ele>55</ele>
        <time>2026-09-04T11:57:13+00:00</time>
      </trkpt>
      <trkpt lat="50.81744" lon="5.72705">
        <ele>55</ele>
        <time>2026-09-04T11:57:16+00:00</time>
      </trkpt>
      <trkpt lat="50.81755" lon="5.72688">
        <ele>55</ele>
        <time>2026-09-04T11:57:19+00:00</time>
      </trkpt>
      <trkpt lat="50.81769" lon="5.72672">
        <ele>55</ele>
        <time>2026-09-04T11:57:22+00:00</time>
      </trkpt>
      <trkpt lat="50.81791" lon="5.72654">
        <ele>55</ele>
        <time>2026-09-04T11:57:25+00:00</time>
      </trkpt>
      <trkpt lat="50.81822" lon="5.72629">
        <ele>56</ele>
        <time>2026-09-04T11:57:28+00:00</time>
      </trkpt>
      <trkpt lat="50.81841" lon="5.72647">
        <ele>56</ele>
        <time>2026-09-04T11:57:31+00:00</time>
      </trkpt>
      <trkpt lat="50.81863" lon="5.72666">
        <ele>56</ele>
        <time>2026-09-04T11:57:34+00:00</time>
      </trkpt>
    </trkseg>
  </trk>
</gpx>
